Time;durP1;ratioP1;P1;durP2;ratioP2;P2;SDS_P1;SDS_P2;PMS_P1;PMS_P2;Temp;Humidity;BMP_temperature;BMP_pressure;BME280_temperature;BME280_humidity;BME280_pressure;Samples;Min_cycle;Max_cycle;Signal;HPM_P1;HPM_P2
2023/08/23 00:04:40;;;;;;;;;;;;;;;23.79;100.00;95891.97;10430678;28;1906;-76
2023/08/23 00:09:42;;;;;;;;;;;;;;;23.77;100.00;95892.31;10431664;28;1886;-76
2023/08/23 00:14:44;;;;;;;;;;;;;;;23.75;100.00;95891.09;10427686;28;1851;-75
2023/08/23 00:19:47;;;;;;;;;;;;;;;23.69;100.00;95888.63;10433328;28;1935;-76
2023/08/23 00:24:49;;;;;;;;;;;;;;;23.66;100.00;95883.81;10427818;28;1898;-75
2023/08/23 00:29:52;;;;;;;;;;;;;;;23.65;100.00;95890.47;10425714;28;1898;-76
2023/08/23 00:34:55;;;;;;;;;;;;;;;23.63;100.00;95898.28;10433456;28;2404;-75
2023/08/23 00:39:58;;;;;;;;;;;;;;;23.59;100.00;95891.84;10451018;28;5114;-76
2023/08/23 00:45:00;;;;;;;;;;;;;;;23.52;100.00;95899.13;10441486;28;1822;-76
2023/08/23 00:50:03;;;;;;;;;;;;;;;23.59;100.00;95891.84;10442208;28;1877;-76
2023/08/23 00:55:06;;;;;;;;;;;;;;;23.55;100.00;95898.44;10440158;28;1851;-75
2023/08/23 01:00:08;;;;;;;;;;;;;;;23.55;100.00;95893.72;10443233;28;1906;-75
2023/08/23 01:05:11;;;;;;;;;;;;;;;23.64;100.00;95893.56;10439047;28;1893;-75
2023/08/23 01:10:13;;;;;;;;;;;;;;;23.83;100.00;95893.66;10441628;28;1866;-74
2023/08/23 01:15:16;;;;;;;;;;;;;;;23.89;100.00;95888.69;10438059;28;2136;-76
2023/08/23 01:20:19;;;;;;;;;;;;;;;23.68;100.00;95888.97;10438603;28;2102;-76
2023/08/23 01:25:21;;;;;;;;;;;;;;;23.59;100.00;95894.59;10441986;28;1895;-76
2023/08/23 01:30:24;;;;;;;;;;;;;;;23.45;100.00;95895.03;10434265;28;2271;-77
2023/08/23 01:35:26;;;;;;;;;;;;;;;23.35;100.00;95914.78;10435543;28;1851;-76
2023/08/23 01:40:29;;;;;;;;;;;;;;;23.37;100.00;95917.16;10439657;28;5078;-75
2023/08/23 01:45:31;;;;;;;;;;;;;;;23.40;100.00;95908.22;10436743;28;1917;-75
2023/08/23 01:50:34;;;;;;;;;;;;;;;23.46;100.00;95913.09;10433841;28;2025;-74
2023/08/23 01:55:37;;;;;;;;;;;;;;;23.54;100.00;95894.06;10434046;28;1906;-75
2023/08/23 02:00:39;;;;;;;;;;;;;;;23.38;100.00;95910.53;10440140;28;1878;-74
2023/08/23 02:05:42;;;;;;;;;;;;;;;23.29;100.00;95907.16;10443441;28;1826;-74
2023/08/23 02:10:45;;;;;;;;;;;;;;;23.31;100.00;95894.69;10436631;28;1910;-74
2023/08/23 02:15:47;;;;;;;;;;;;;;;23.23;100.00;95892.13;10435919;28;1835;-74
2023/08/23 02:20:50;;;;;;;;;;;;;;;23.15;100.00;95900.13;10435439;28;2084;-75
2023/08/23 02:25:53;;;;;;;;;;;;;;;23.14;100.00;95914.19;10434976;28;2385;-74
2023/08/23 02:30:55;;;;;;;;;;;;;;;23.17;100.00;95928.03;10435769;28;2056;-74
2023/08/23 02:35:58;;;;;;;;;;;;;;;23.09;100.00;95919.94;10437932;28;1963;-74
2023/08/23 02:41:01;;;;;;;;;;;;;;;23.04;100.00;95910.03;10440583;28;1916;-75
2023/08/23 02:46:04;;;;;;;;;;;;;;;22.95;100.00;95914.88;10436013;28;1908;-75
2023/08/23 02:51:06;;;;;;;;;;;;;;;22.98;100.00;95916.91;10436931;28;1914;-75
2023/08/23 02:56:09;;;;;;;;;;;;;;;22.95;100.00;95914.06;10431944;28;1905;-75
2023/08/23 03:01:11;;;;;;;;;;;;;;;22.87;100.00;95908.41;10429783;28;1847;-75
2023/08/23 03:06:14;;;;;;;;;;;;;;;22.79;100.00;95900.31;10437330;28;1890;-75
2023/08/23 03:11:16;;;;;;;;;;;;;;;22.69;100.00;95895.31;10438016;28;1918;-76
2023/08/23 03:16:19;;;;;;;;;;;;;;;22.73;100.00;95901.69;10435864;28;1882;-74
2023/08/23 03:21:21;;;;;;;;;;;;;;;22.74;100.00;95909.56;10432931;28;2246;-74
2023/08/23 03:26:24;;;;;;;;;;;;;;;22.83;100.00;95917.63;10430373;28;1959;-73
2023/08/23 03:31:26;;;;;;;;;;;;;;;22.65;100.00;95917.94;10434496;28;1977;-74
2023/08/23 03:36:29;;;;;;;;;;;;;;;22.65;100.00;95933.59;10438477;28;1854;-73
2023/08/23 03:41:31;;;;;;;;;;;;;;;22.50;100.00;95943.31;10435409;28;1890;-74
2023/08/23 03:46:34;;;;;;;;;;;;;;;22.53;100.00;95934.41;10434552;28;1875;-75
2023/08/23 03:51:36;;;;;;;;;;;;;;;22.55;100.00;95937.59;10432530;28;1953;-75
2023/08/23 03:56:38;;;;;;;;;;;;;;;22.53;100.00;95947.31;10434918;28;2029;-75
2023/08/23 04:01:43;;;;;;;;;;;;;;;22.53;100.00;95939.88;10430955;28;1923;-76
